首页
METAR-TAF:

METAR-TAF

机场 :

扎達爾, 克罗地亚

纬度: 44-06N, 经度: 015-21E, 海拔: 82米

当前天气观测

该预报发布于16分钟前的19:30 UTC
静风
温度 7°C
湿度 87%
气压 1017 hPa
能见度10公里或以上
1500米以下无云,无积雨云

METAR: LDZD 191930Z 00000KT CAVOK 07/05 Q1017 NOSIG

时间: 20:46 (19:46 UTC)

预报

该预报发布于2小时和21分钟前的17:25 UTC
预报有效从19日的 18点(UTC)到 20日的 18点(UTC)
风速6节,风向
能见度10公里或以上
散云层高于3000英尺
几率 30% :
短暂存在
从 19日的 18点(UTC)到 19日的 23点(UTC)
风速15节,风向西北
少量云层高于2500英尺, 积雨云.
散云层高于3000英尺
雷暴, 雨
成为
从 19日的 20点(UTC)到 19日的 22点(UTC)
风速10节,风向东北
几率 30% :
短暂存在
从 20日的 00点(UTC)到 20日的 08点(UTC)
风速15节,风向东北,有时为25节阵风
成为
从 20日的 10点(UTC)到 20日的 12点(UTC)
风速7节,风向北转西北

TAF: LDZD 191725Z 1918/2018 08006KT 9999 SCT030 TX14/2012Z TN03/2017Z PROB30 TEMPO 1918/1923 32015KT TSRA FEW025CB SCT030 BECMG 1920/1922 04010KT PROB30 TEMPO 2000/2008 04015G25KT BECMG 2010/2012 33007KT

超过4000个机场的气象观测和天气预报(METAR&TAF报告)。

可查询的气象台以黄色和红色小点在地图上表示。

将鼠标移到小点上方,可查看气象台名称。

然后点击查看天气观测和预报。

如需切换地图:点击带黑十字的绿色按钮放大地图;点击带横线的绿色按钮缩小地图;或者点击绿色箭头查看邻近地区的地图。


METAR-TAF: